This is the latest recevied weather packets stored in our database for station/object OK1ALX-6. If no packets are shown the sender has not sent any weather packets the latest 10 day(s).
| Time | Temp. | Humidity | Pressure | Rain* | Wind** | Luminosity | Snow |
|---|---|---|---|---|---|---|---|
| 1776969603 | 12.78° C | 42% | 1024.3 hPa | 0 mm | - | 0 W/m² | - |
| 1776969003 | 13.33° C | 41% | 1024.1 hPa | 0 mm | - | 0 W/m² | - |
| 1776968403 | 13.33° C | 40% | 1024.2 hPa | 0 mm | - | 0 W/m² | - |
| 1776967803 | 13.33° C | 39% | 1024.1 hPa | 0 mm | - | 0 W/m² | - |
| 1776967203 | 13.33° C | 38% | 1024 hPa | 0 mm | - | 3 W/m² | - |
| 1776966603 | 13.89° C | 37% | 1023.8 hPa | 0 mm | - | 8 W/m² | - |
| 1776966003 | 14.44° C | 35% | 1023.8 hPa | 0 mm | - | 15 W/m² | - |
| 1776965403 | 15° C | 34% | 1023.4 hPa | 0 mm | - | 20 W/m² | - |
| 1776964803 | 15.56° C | 33% | 1023.1 hPa | 0 mm | - | 27 W/m² | - |
| 1776964203 | 15.56° C | 32% | 1023.3 hPa | 0 mm | - | 33 W/m² | - |
| 1776963603 | 16.11° C | 30% | 1023.2 hPa | 0 mm | - | 43 W/m² | - |
| 1776963003 | 16.11° C | 31% | 1023.1 hPa | 0 mm | - | 60 W/m² | - |
| 1776962403 | 16.67° C | 29% | 1023 hPa | 0 mm | - | 98 W/m² | - |
| 1776961803 | 16.67° C | 29% | 1023.1 hPa | 0 mm | - | 125 W/m² | - |
| 1776961203 | 16.67° C | 27% | 1023 hPa | 0 mm | - | 148 W/m² | - |
| 1776960603 | 16.67° C | 27% | 1023.1 hPa | 0 mm | - | 165 W/m² | - |
| 1776960003 | 17.22° C | 26% | 1023 hPa | 0 mm | - | 193 W/m² | - |
| 1776959403 | 17.22° C | 27% | 1023 hPa | 0 mm | - | 195 W/m² | - |
| 1776958804 | 17.22° C | 27% | 1023.1 hPa | 0 mm | - | 264 W/m² | - |
| 1776958203 | 17.22° C | 25% | 1023.1 hPa | 0 mm | - | 293 W/m² | - |
| 1776957603 | 17.22° C | 24% | 1023.3 hPa | 0 mm | - | 322 W/m² | - |
| 1776957003 | 17.78° C | 23% | 1023 hPa | 0 mm | - | 346 W/m² | - |
| 1776956403 | 17.78° C | 25% | 1023 hPa | 0 mm | - | 353 W/m² | - |
| 1776955803 | 17.78° C | 24% | 1022.9 hPa | 0 mm | - | 346 W/m² | - |
| 1776955203 | 17.78° C | 23% | 1022.8 hPa | 0 mm | - | 387 W/m² | - |
* Rain latest hour (hover to see other rain measurements)
** Current wind speed in m/s (hover to see current wind gust speed)